Time,TemperatureF,DewpointF,PressureIn,WindDirection,WindDirectionDegrees,WindSpeedMPH,WindSpeedGustMPH,Humidity,HourlyPrecipIn,Conditions,Clouds,dailyrainin,SoftwareType,DateUTC
2013-02-01 00:03:00,46.0,30.0,30.24,WSW,255,0.0,0.0,53,0.00,,,0.03,,2013-02-01 05:03:00,
2013-02-01 00:12:00,46.0,30.0,30.24,WSW,255,0.0,0.0,53,0.00,,,0.03,,2013-02-01 05:12:00,
2013-02-01 00:22:00,46.0,30.0,30.24,WSW,255,0.0,0.0,53,0.00,,,0.03,,2013-02-01 05:22:00,
2013-02-01 00:32:00,45.0,29.0,30.24,West,265,0.0,0.0,54,0.00,,,0.01,,2013-02-01 05:32:00,
2013-02-01 00:42:00,45.0,29.0,30.24,West,265,0.0,0.0,54,0.00,,,0.01,,2013-02-01 05:42:00,
2013-02-01 00:52:00,45.0,29.0,30.24,West,265,0.0,0.0,54,0.00,,,0.01,,2013-02-01 05:52:00,
2013-02-01 01:02:00,44.0,29.0,30.21,West,265,0.0,0.0,56,0.00,,,0.01,,2013-02-01 06:02:00,
2013-02-01 01:11:00,44.0,29.0,30.21,West,265,0.0,0.0,56,0.00,,,0.01,,2013-02-01 06:11:00,
2013-02-01 01:22:00,44.0,30.0,30.21,West,265,0.0,0.0,57,0.00,,,0.01,,2013-02-01 06:22:00,
2013-02-01 01:32:00,44.0,30.0,30.21,WSW,255,0.0,0.0,57,0.00,,,0.01,,2013-02-01 06:32:00,
2013-02-01 01:42:00,44.0,30.0,30.21,WSW,255,0.0,0.0,57,0.00,,,0.01,,2013-02-01 06:42:00,
2013-02-01 01:52:00,44.0,30.0,30.21,WSW,255,0.0,0.0,57,0.00,,,0.01,,2013-02-01 06:52:00,
2013-02-01 02:02:00,43.0,29.0,30.21,WSW,255,0.0,0.0,57,0.00,,,0.01,,2013-02-01 07:02:00,
2013-02-01 02:12:00,43.0,29.0,30.21,WSW,255,0.0,0.0,57,0.00,,,0.01,,2013-02-01 07:12:00,
2013-02-01 02:22:00,43.0,29.0,30.21,WSW,255,0.0,0.0,57,0.00,,,0.01,,2013-02-01 07:22:00,
2013-02-01 02:32:00,43.0,29.0,30.24,West,260,0.0,0.0,57,0.00,,,0.01,,2013-02-01 07:32:00,
2013-02-01 02:42:00,43.0,29.0,30.24,West,260,0.0,0.0,57,0.00,,,0.01,,2013-02-01 07:42:00,
2013-02-01 02:51:00,43.0,29.0,30.24,West,260,0.0,0.0,57,0.00,,,0.01,,2013-02-01 07:51:00,
2013-02-01 03:01:00,43.0,29.0,30.24,WSW,248,0.0,0.0,57,0.00,,,0.01,,2013-02-01 08:01:00,
2013-02-01 03:11:00,43.0,29.0,30.24,WSW,248,0.0,0.0,57,0.00,,,0.01,,2013-02-01 08:11:00,
2013-02-01 03:21:00,44.0,30.0,30.24,West,270,0.0,2.0,58,0.00,,,0.01,,2013-02-01 08:21:00,
2013-02-01 03:32:00,44.0,29.0,30.24,West,275,3.0,5.0,56,0.00,,,0.01,,2013-02-01 08:32:00,
2013-02-01 03:42:00,44.0,29.0,30.24,West,275,3.0,5.0,56,0.00,,,0.01,,2013-02-01 08:42:00,
2013-02-01 03:52:00,44.0,29.0,30.24,West,275,3.0,5.0,56,0.00,,,0.01,,2013-02-01 08:52:00,
2013-02-01 04:01:00,44.0,29.0,30.24,West,270,3.0,5.0,56,0.00,,,0.01,,2013-02-01 09:01:00,
2013-02-01 04:11:00,44.0,29.0,30.24,West,270,3.0,5.0,56,0.00,,,0.01,,2013-02-01 09:11:00,
2013-02-01 04:21:00,44.0,29.0,30.24,West,270,3.0,5.0,56,0.00,,,0.01,,2013-02-01 09:21:00,
2013-02-01 04:32:00,43.0,28.0,30.24,WSW,255,2.0,5.0,55,0.00,,,0.01,,2013-02-01 09:32:00,
2013-02-01 04:42:00,43.0,28.0,30.24,WSW,255,2.0,5.0,55,0.00,,,0.01,,2013-02-01 09:42:00,
2013-02-01 04:51:00,43.0,28.0,30.21,West,270,1.0,1.0,55,0.00,,,0.01,,2013-02-01 09:51:00,
2013-02-01 05:01:00,43.0,28.0,30.24,WSW,250,2.0,5.0,55,0.00,,,0.01,,2013-02-01 10:01:00,
2013-02-01 05:11:00,43.0,28.0,30.24,WSW,250,2.0,5.0,55,0.00,,,0.01,,2013-02-01 10:11:00,
2013-02-01 05:21:00,42.0,27.0,30.24,West,270,3.0,5.0,55,0.00,,,0.01,,2013-02-01 10:21:00,
2013-02-01 05:32:00,42.0,27.0,30.24,West,260,1.0,0.0,56,0.00,,,0.01,,2013-02-01 10:32:00,
2013-02-01 05:42:00,42.0,27.0,30.24,West,260,1.0,0.0,56,0.00,,,0.01,,2013-02-01 10:42:00,
2013-02-01 05:52:00,42.0,27.0,30.24,West,260,0.0,0.0,56,0.00,,,0.01,,2013-02-01 10:52:00,
2013-02-01 06:02:00,41.0,27.0,30.24,West,260,1.0,3.0,57,0.00,,,0.01,,2013-02-01 11:02:00,
2013-02-01 06:11:00,41.0,27.0,30.24,West,260,1.0,3.0,57,0.00,,,0.01,,2013-02-01 11:11:00,
2013-02-01 06:22:00,41.0,27.0,30.24,West,260,1.0,0.0,57,0.00,,,0.01,,2013-02-01 11:22:00,
2013-02-01 06:32:00,41.0,27.0,30.24,West,260,1.0,0.0,58,0.00,,,0.01,,2013-02-01 11:32:00,
2013-02-01 06:42:00,41.0,27.0,30.24,West,260,1.0,0.0,58,0.00,,,0.01,,2013-02-01 11:42:00,
2013-02-01 06:53:00,40.0,27.0,30.27,West,260,0.0,0.0,59,0.00,,,0.01,,2013-02-01 11:53:00,
2013-02-01 07:03:00,40.0,28.0,30.27,West,270,0.0,0.0,61,0.00,,,0.01,,2013-02-01 12:03:00,
2013-02-01 07:12:00,40.0,28.0,30.27,West,270,0.0,0.0,61,0.00,,,0.01,,2013-02-01 12:12:00,
2013-02-01 07:23:00,40.0,28.0,30.27,West,270,0.0,0.0,62,0.00,,,0.01,,2013-02-01 12:23:00,
2013-02-01 07:32:00,40.0,30.0,30.27,West,265,0.0,0.0,66,0.00,,,0.01,,2013-02-01 12:32:00,
2013-02-01 07:42:00,40.0,30.0,30.27,West,265,0.0,0.0,66,0.00,,,0.01,,2013-02-01 12:42:00,
2013-02-01 07:52:00,39.0,29.0,30.27,West,270,0.0,0.0,66,0.00,,,0.01,,2013-02-01 12:52:00,
2013-02-01 08:02:00,39.0,29.0,30.27,West,265,0.0,0.0,66,0.00,,,0.01,,2013-02-01 13:02:00,
2013-02-01 08:11:00,39.0,29.0,30.27,West,265,0.0,0.0,66,0.00,,,0.01,,2013-02-01 13:11:00,
2013-02-01 08:22:00,40.0,30.0,30.27,West,270,0.0,0.0,67,0.00,,,0.01,,2013-02-01 13:22:00,
2013-02-01 08:33:00,41.0,29.0,30.27,West,270,0.0,0.0,62,0.00,,,0.01,,2013-02-01 13:33:00,
2013-02-01 08:42:00,41.0,29.0,30.27,West,270,0.0,0.0,62,0.00,,,0.01,,2013-02-01 13:42:00,
2013-02-01 08:53:00,42.0,29.0,30.30,NW,310,0.0,0.0,60,0.00,,,0.01,,2013-02-01 13:53:00,
2013-02-01 09:03:00,43.0,29.0,30.30,WNW,285,0.0,0.0,58,0.00,,,0.01,,2013-02-01 14:03:00,
2013-02-01 09:11:00,46.0,29.0,30.30,WNW,285,0.0,1.0,51,0.00,,,0.01,,2013-02-01 14:11:00,
2013-02-01 09:22:00,46.0,29.0,30.30,WNW,285,0.0,1.0,51,0.00,,,0.01,,2013-02-01 14:22:00,
2013-02-01 09:32:00,47.0,28.0,30.30,West,280,2.0,5.0,47,0.00,,,0.01,,2013-02-01 14:32:00,
2013-02-01 09:42:00,47.0,28.0,30.30,West,280,2.0,5.0,47,0.00,,,0.01,,2013-02-01 14:42:00,
2013-02-01 09:53:00,48.0,28.0,30.30,WNW,285,3.0,3.0,46,0.00,,,0.01,,2013-02-01 14:53:00,
2013-02-01 10:02:00,50.0,29.0,30.30,West,280,3.0,3.0,44,0.00,,,0.01,,2013-02-01 15:02:00,
2013-02-01 10:12:00,51.0,29.0,30.30,West,260,1.0,2.0,42,0.00,,,0.01,,2013-02-01 15:12:00,
2013-02-01 10:22:00,51.0,29.0,30.30,West,260,1.0,2.0,42,0.00,,,0.01,,2013-02-01 15:22:00,
2013-02-01 10:33:00,52.0,28.0,30.30,West,270,2.0,10.0,40,0.00,,,0.01,,2013-02-01 15:33:00,
2013-02-01 10:42:00,52.0,28.0,30.30,West,270,2.0,10.0,40,0.00,,,0.01,,2013-02-01 15:42:00,
2013-02-01 10:52:00,52.0,28.0,30.30,West,270,2.0,10.0,40,0.00,,,0.01,,2013-02-01 15:52:00,
2013-02-01 11:03:00,56.0,29.0,30.30,West,275,6.0,8.0,36,0.00,,,0.01,,2013-02-01 16:03:00,
2013-02-01 11:11:00,56.0,29.0,30.30,West,275,6.0,8.0,36,0.00,,,0.01,,2013-02-01 16:11:00,
2013-02-01 11:22:00,56.0,29.0,30.30,West,275,6.0,8.0,36,0.00,,,0.01,,2013-02-01 16:22:00,
2013-02-01 11:33:00,58.0,28.0,30.30,West,265,9.0,13.0,32,0.00,,,0.01,,2013-02-01 16:33:00,
2013-02-01 11:43:00,58.0,28.0,30.30,West,265,9.0,13.0,32,0.00,,,0.01,,2013-02-01 16:43:00,
2013-02-01 11:52:00,58.0,28.0,30.30,West,265,9.0,13.0,32,0.00,,,0.01,,2013-02-01 16:52:00,
2013-02-01 12:03:00,61.0,32.0,30.27,West,275,10.0,10.0,34,0.00,,,0.01,,2013-02-01 17:03:00,
2013-02-01 12:12:00,61.0,30.0,30.27,WNW,285,10.0,12.0,31,0.00,,,0.01,,2013-02-01 17:12:00,
2013-02-01 12:22:00,61.0,30.0,30.27,WNW,285,10.0,12.0,31,0.00,,,0.01,,2013-02-01 17:22:00,
2013-02-01 12:32:00,62.0,33.0,30.27,West,280,8.0,10.0,34,0.00,,,0.01,,2013-02-01 17:32:00,
2013-02-01 12:42:00,62.0,33.0,30.27,West,280,8.0,10.0,34,0.00,,,0.01,,2013-02-01 17:42:00,
2013-02-01 12:52:00,62.0,33.0,30.27,West,280,8.0,10.0,34,0.00,,,0.01,,2013-02-01 17:52:00,
2013-02-01 13:03:00,62.0,30.0,30.27,WNW,285,8.0,9.0,30,0.00,,,0.01,,2013-02-01 18:03:00,
2013-02-01 13:12:00,62.0,30.0,30.27,WNW,285,8.0,9.0,30,0.00,,,0.01,,2013-02-01 18:12:00,
2013-02-01 13:22:00,64.0,27.0,30.27,West,270,8.0,12.0,25,0.00,,,0.01,,2013-02-01 18:22:00,
2013-02-01 13:32:00,64.0,29.0,30.24,West,260,7.0,8.0,27,0.00,,,0.00,,2013-02-01 18:32:00,
2013-02-01 13:42:00,64.0,29.0,30.24,West,260,7.0,8.0,27,0.00,,,0.00,,2013-02-01 18:42:00,
2013-02-01 13:53:00,64.0,28.0,30.24,WSW,255,6.0,7.0,26,0.00,,,0.00,,2013-02-01 18:53:00,
2013-02-01 14:03:00,63.0,29.0,30.24,West,270,3.0,8.0,27,0.00,,,0.00,,2013-02-01 19:03:00,
2013-02-01 14:12:00,63.0,29.0,30.24,West,270,3.0,8.0,27,0.00,,,0.00,,2013-02-01 19:12:00,
2013-02-01 14:21:00,63.0,29.0,30.24,West,270,3.0,8.0,27,0.00,,,0.00,,2013-02-01 19:21:00,
2013-02-01 14:32:00,63.0,31.0,30.21,West,280,3.0,7.0,30,0.00,,,0.00,,2013-02-01 19:32:00,
2013-02-01 14:42:00,63.0,31.0,30.21,West,280,3.0,7.0,30,0.00,,,0.00,,2013-02-01 19:42:00,
2013-02-01 14:51:00,63.0,31.0,30.21,West,260,5.0,7.0,30,0.00,,,0.00,,2013-02-01 19:51:00,
2013-02-01 15:02:00,63.0,32.0,30.21,WNW,285,6.0,8.0,31,0.00,,,0.00,,2013-02-01 20:02:00,
2013-02-01 15:11:00,63.0,31.0,30.21,West,270,6.0,10.0,30,0.00,,,0.00,,2013-02-01 20:11:00,
2013-02-01 15:21:00,63.0,31.0,30.21,West,270,6.0,10.0,30,0.00,,,0.00,,2013-02-01 20:21:00,
2013-02-01 15:32:00,63.0,29.0,30.21,West,275,10.0,14.0,27,0.00,,,0.00,,2013-02-01 20:32:00,
2013-02-01 15:42:00,63.0,29.0,30.21,WSW,250,10.0,10.0,28,0.00,,,0.00,,2013-02-01 20:42:00,
2013-02-01 15:52:00,63.0,29.0,30.21,WSW,250,10.0,10.0,28,0.00,,,0.00,,2013-02-01 20:52:00,
2013-02-01 16:02:00,62.0,28.0,30.21,West,275,10.0,13.0,27,0.00,,,0.00,,2013-02-01 21:02:00,
2013-02-01 16:12:00,62.0,28.0,30.21,West,275,10.0,13.0,27,0.00,,,0.00,,2013-02-01 21:12:00,
2013-02-01 16:21:00,62.0,28.0,30.21,West,275,10.0,13.0,27,0.00,,,0.00,,2013-02-01 21:21:00,
2013-02-01 16:32:00,62.0,31.0,30.21,WNW,295,5.0,6.0,31,0.00,,,0.00,,2013-02-01 21:32:00,
2013-02-01 16:42:00,62.0,31.0,30.21,WNW,295,5.0,6.0,31,0.00,,,0.00,,2013-02-01 21:42:00,
2013-02-01 16:52:00,62.0,31.0,30.21,WNW,295,5.0,6.0,31,0.00,,,0.00,,2013-02-01 21:52:00,
2013-02-01 17:02:00,60.0,34.0,30.24,WNW,290,6.0,7.0,37,0.00,,,0.00,,2013-02-01 22:02:00,
2013-02-01 17:11:00,60.0,34.0,30.24,WNW,290,6.0,7.0,37,0.00,,,0.00,,2013-02-01 22:11:00,
2013-02-01 17:21:00,60.0,33.0,30.24,West,270,6.0,9.0,36,0.00,,,0.00,,2013-02-01 22:21:00,
2013-02-01 17:32:00,60.0,33.0,30.24,West,270,7.0,9.0,36,0.00,,,0.00,,2013-02-01 22:32:00,
2013-02-01 17:42:00,60.0,33.0,30.24,West,270,7.0,9.0,36,0.00,,,0.00,,2013-02-01 22:42:00,
2013-02-01 17:51:00,60.0,33.0,30.24,West,270,7.0,9.0,36,0.00,,,0.00,,2013-02-01 22:51:00,
2013-02-01 18:02:00,58.0,31.0,30.24,West,260,2.0,5.0,36,0.00,,,0.00,,2013-02-01 23:02:00,
2013-02-01 18:11:00,58.0,31.0,30.24,West,260,2.0,5.0,36,0.00,,,0.00,,2013-02-01 23:11:00,
2013-02-01 18:22:00,57.0,30.0,30.24,West,265,2.0,5.0,36,0.00,,,0.00,,2013-02-01 23:22:00,
2013-02-01 18:32:00,56.0,31.0,30.24,WSW,255,0.0,0.0,39,0.00,,,0.00,,2013-02-01 23:32:00,
2013-02-01 18:42:00,56.0,31.0,30.24,WSW,255,0.0,0.0,39,0.00,,,0.00,,2013-02-01 23:42:00,
2013-02-01 18:52:00,56.0,32.0,30.24,WSW,255,0.0,0.0,40,0.00,,,0.00,,2013-02-01 23:52:00,
2013-02-01 19:02:00,54.0,33.0,30.24,West,270,0.0,0.0,45,0.00,,,0.00,,2013-02-02 00:02:00,
2013-02-01 19:11:00,54.0,33.0,30.24,West,270,0.0,0.0,45,0.00,,,0.00,,2013-02-02 00:11:00,
2013-02-01 19:21:00,54.0,33.0,30.24,West,265,0.0,0.0,45,0.00,,,0.00,,2013-02-02 00:21:00,
2013-02-01 19:32:00,53.0,33.0,30.24,West,265,0.0,0.0,47,0.00,,,0.00,,2013-02-02 00:32:00,
2013-02-01 19:42:00,53.0,33.0,30.24,West,265,0.0,0.0,47,0.00,,,0.00,,2013-02-02 00:42:00,
2013-02-01 19:52:00,53.0,33.0,30.24,West,265,0.0,0.0,47,0.00,,,0.00,,2013-02-02 00:52:00,
2013-02-01 20:02:00,51.0,34.0,30.27,West,265,0.0,0.0,53,0.00,,,0.00,,2013-02-02 01:02:00,
2013-02-01 20:11:00,51.0,34.0,30.27,West,265,0.0,0.0,53,0.00,,,0.00,,2013-02-02 01:11:00,
2013-02-01 20:21:00,51.0,34.0,30.27,West,265,0.0,0.0,52,0.00,,,0.00,,2013-02-02 01:21:00,
2013-02-01 20:32:00,51.0,34.0,30.27,West,265,0.0,0.0,52,0.00,,,0.00,,2013-02-02 01:32:00,
2013-02-01 20:42:00,51.0,34.0,30.27,West,265,0.0,0.0,52,0.00,,,0.00,,2013-02-02 01:42:00,
2013-02-01 20:52:00,50.0,33.0,30.27,West,265,0.0,0.0,52,0.00,,,0.00,,2013-02-02 01:52:00,
2013-02-01 21:01:00,50.0,34.0,30.27,West,265,0.0,0.0,54,0.00,,,0.00,,2013-02-02 02:01:00,
2013-02-01 21:11:00,50.0,34.0,30.27,West,265,0.0,0.0,54,0.00,,,0.00,,2013-02-02 02:11:00,
2013-02-01 21:21:00,50.0,35.0,30.27,West,265,0.0,0.0,56,0.00,,,0.00,,2013-02-02 02:21:00,
2013-02-01 21:32:00,51.0,35.0,30.30,NW,310,1.0,1.0,54,0.00,,,0.00,,2013-02-02 02:32:00,
2013-02-01 21:42:00,51.0,35.0,30.30,NW,310,1.0,1.0,54,0.00,,,0.00,,2013-02-02 02:42:00,
2013-02-01 21:52:00,51.0,35.0,30.30,NW,310,1.0,1.0,54,0.00,,,0.00,,2013-02-02 02:52:00,
2013-02-01 22:02:00,50.0,31.0,30.30,NW,315,1.0,1.0,48,0.00,,,0.00,,2013-02-02 03:02:00,
2013-02-01 22:11:00,50.0,29.0,30.30,NW,315,0.0,1.0,45,0.00,,,0.00,,2013-02-02 03:11:00,
2013-02-01 22:22:00,50.0,29.0,30.30,NW,315,0.0,1.0,45,0.00,,,0.00,,2013-02-02 03:22:00,
2013-02-01 22:32:00,49.0,29.0,30.30,NW,315,0.0,0.0,46,0.00,,,0.00,,2013-02-02 03:32:00,
2013-02-01 22:42:00,49.0,30.0,30.30,NW,315,0.0,0.0,47,0.00,,,0.00,,2013-02-02 03:42:00,
2013-02-01 22:52:00,49.0,30.0,30.30,NW,315,0.0,0.0,47,0.00,,,0.00,,2013-02-02 03:52:00,
2013-02-01 23:02:00,49.0,29.0,30.30,NW,320,0.0,0.0,46,0.00,,,0.00,,2013-02-02 04:02:00,
2013-02-01 23:11:00,49.0,29.0,30.30,NW,320,0.0,0.0,46,0.00,,,0.00,,2013-02-02 04:11:00,
2013-02-01 23:21:00,48.0,26.0,30.30,NNW,345,0.0,0.0,42,0.00,,,0.00,,2013-02-02 04:21:00,
2013-02-01 23:32:00,47.0,24.0,30.30,North,350,0.0,0.0,40,0.00,,,0.00,,2013-02-02 04:32:00,
2013-02-01 23:42:00,47.0,24.0,30.30,North,350,0.0,0.0,40,0.00,,,0.00,,2013-02-02 04:42:00,
2013-02-01 23:52:00,47.0,22.0,30.30,North,5,0.0,0.0,37,0.00,,,0.00,,2013-02-02 04:52:00,